Time;durP1;ratioP1;P1;durP2;ratioP2;P2;SDS_P1;SDS_P2;PMS_P1;PMS_P2;Temp;Humidity;BMP_temperature;BMP_pressure;BME280_temperature;BME280_humidity;BME280_pressure;Samples;Min_cycle;Max_cycle;Signal;HPM_P1;HPM_P2
2022/05/11 00:00:54;;;;;;;9.63;8.73;;;;;;;17.74;nan;100013.97;5020075;28;20570;-73
2022/05/11 00:03:20;;;;;;;9.88;8.98;;;;;;;17.77;nan;100023.50;5021679;28;20104;-73
2022/05/11 00:05:46;;;;;;;12.43;8.85;;;;;;;17.61;nan;100028.94;5019959;28;20018;-73
2022/05/11 00:08:12;;;;;;;13.07;9.20;;;;;;;17.46;nan;100024.31;5021417;28;20029;-74
2022/05/11 00:10:37;;;;;;;12.75;9.27;;;;;;;17.40;nan;100019.69;5019088;28;20064;-73
2022/05/11 00:13:04;;;;;;;11.65;9.45;;;;;;;17.53;nan;100016.44;5022387;28;20071;-73
2022/05/11 00:15:30;;;;;;;13.00;9.20;;;;;;;17.51;nan;100019.28;5020007;28;20033;-73
2022/05/11 00:17:55;;;;;;;10.25;9.32;;;;;;;17.44;nan;100017.47;5021373;28;20041;-73
2022/05/11 00:20:23;;;;;;;9.98;9.02;;;;;;;17.38;nan;100015.50;5021205;28;20155;-73
2022/05/11 00:22:52;;;;;;;13.35;9.35;;;;;;;16.76;nan;100013.63;5020019;28;20034;-73
2022/05/11 00:25:18;;;;;;;16.00;9.67;;;;;;;16.96;nan;100014.06;5023888;28;20035;-73
2022/05/11 00:27:43;;;;;;;10.55;9.40;;;;;;;17.06;nan;100014.69;5019438;28;20030;-73
2022/05/11 00:30:09;;;;;;;14.80;10.32;;;;;;;17.18;nan;100017.78;5017739;28;20045;-73
2022/05/11 00:32:35;;;;;;;13.77;10.00;;;;;;;17.16;nan;100025.13;5021966;28;20037;-74
2022/05/11 00:35:01;;;;;;;10.63;9.38;;;;;;;17.15;nan;100012.78;5019777;28;20042;-74
2022/05/11 00:37:28;;;;;;;10.13;9.23;;;;;;;17.18;nan;100009.78;5020672;28;20080;-74
2022/05/11 00:39:53;;;;;;;11.30;9.90;;;;;;;17.00;nan;100010.03;5020390;28;20505;-73
2022/05/11 00:42:19;;;;;;;11.23;10.13;;;;;;;17.15;nan;100007.47;5019780;28;20041;-73
2022/05/11 00:44:44;;;;;;;10.00;9.00;;;;;;;17.00;nan;100019.88;5021974;28;20056;-74
2022/05/11 00:47:16;;;;;;;11.90;9.48;;;;;;;16.85;nan;100021.59;5019297;28;20029;-73
2022/05/11 00:49:52;;;;;;;12.23;9.88;;;;;;;16.86;nan;100012.59;5018895;28;20052;-74
2022/05/11 00:52:27;;;;;;;10.75;9.57;;;;;;;16.97;nan;100014.88;5020884;28;20060;-74
2022/05/11 00:55:00;;;;;;;10.38;9.25;;;;;;;16.92;nan;100011.91;5023171;28;20394;-74
2022/05/11 00:57:34;;;;;;;12.50;9.43;;;;;;;16.83;nan;100015.59;5018429;28;20149;-74
2022/05/11 01:00:01;;;;;;;10.93;9.93;;;;;;;16.70;nan;100008.97;5019231;28;20034;-74
2022/05/11 01:02:26;;;;;;;11.18;9.70;;;;;;;16.68;nan;100010.97;5017521;28;20050;-74
2022/05/11 01:04:58;;;;;;;10.55;9.40;;;;;;;16.65;nan;100011.31;5019527;28;20034;-74
2022/05/11 01:07:26;;;;;;;10.07;9.10;;;;;;;16.69;nan;100006.47;5020258;28;20033;-74
2022/05/11 01:09:52;;;;;;;10.65;9.48;;;;;;;16.82;nan;100003.28;5020368;28;20506;-74
2022/05/11 01:12:20;;;;;;;10.70;9.60;;;;;;;16.82;nan;100005.94;5019925;28;20072;-74
2022/05/11 01:14:51;;;;;;;11.23;10.15;;;;;;;16.84;nan;100003.94;5019431;28;20084;-74
2022/05/11 01:17:18;;;;;;;11.15;10.00;;;;;;;16.74;nan;100010.28;5020430;28;20029;-74
2022/05/11 01:19:45;;;;;;;10.98;9.77;;;;;;;16.44;nan;100008.31;5019251;28;20033;-73
2022/05/11 01:22:29;;;;;;;14.88;10.45;;;;;;;16.51;nan;100005.81;5022182;28;20493;-74
2022/05/11 01:24:56;;;;;;;11.70;10.60;;;;;;;16.59;nan;100012.00;5023120;28;20033;-74
2022/05/11 01:27:21;;;;;;;12.95;10.10;;;;;;;16.37;nan;100002.03;5020565;28;20086;-74
2022/05/11 01:29:47;;;;;;;11.80;10.80;;;;;;;16.33;nan;100006.03;5019435;28;20045;-74
2022/05/11 01:32:12;;;;;;;13.27;10.88;;;;;;;16.45;nan;100003.84;5022169;28;20029;-74
2022/05/11 01:34:37;;;;;;;13.85;10.82;;;;;;;16.58;nan;99999.66;5018707;28;20482;-74
2022/05/11 01:37:04;;;;;;;14.38;10.60;;;;;;;16.60;nan;99997.69;5020297;28;20037;-73
2022/05/11 01:39:29;;;;;;;11.65;10.50;;;;;;;16.50;nan;99991.66;5018965;28;20038;-73
2022/05/11 01:41:55;;;;;;;12.57;11.27;;;;;;;16.52;nan;99989.69;5019157;28;20057;-74
2022/05/11 01:44:22;;;;;;;12.57;11.32;;;;;;;16.51;nan;99985.34;5020338;28;20037;-74
2022/05/11 01:46:54;;;;;;;12.25;10.45;;;;;;;16.46;nan;99987.69;5022188;28;20088;-74
2022/05/11 01:49:22;;;;;;;16.35;11.60;;;;;;;16.47;nan;99992.03;5024236;28;20028;-73
2022/05/11 01:51:48;;;;;;;11.18;10.07;;;;;;;16.49;nan;99995.34;5022666;28;20026;-73
2022/05/11 01:54:16;;;;;;;14.43;11.05;;;;;;;16.40;nan;99993.69;5024797;28;20116;-73
2022/05/11 01:56:42;;;;;;;13.25;11.85;;;;;;;16.44;nan;99992.34;5021900;28;20049;-74
2022/05/11 01:59:07;;;;;;;12.20;11.00;;;;;;;16.39;nan;99992.03;5025402;28;20389;-73
2022/05/11 02:01:35;;;;;;;12.77;11.13;;;;;;;16.36;nan;99990.56;5021994;28;20041;-74
2022/05/11 02:04:00;;;;;;;16.05;12.00;;;;;;;16.19;nan;99991.56;5024908;28;20488;-74
2022/05/11 02:09:12;;;;;;;14.50;11.43;;;;;;;16.14;nan;100001.88;5021780;28;20424;-74
2022/05/11 02:11:38;;;;;;;12.63;10.82;;;;;;;16.03;nan;99996.06;5023150;28;20613;-73
2022/05/11 02:14:04;;;;;;;14.32;11.57;;;;;;;16.07;nan;100000.06;5021907;28;20033;-73
2022/05/11 02:16:31;;;;;;;12.07;10.88;;;;;;;16.09;nan;99998.03;5023955;28;20502;-74
2022/05/11 02:18:57;;;;;;;12.02;10.77;;;;;;;16.09;nan;100008.69;5023216;28;20488;-74
2022/05/11 02:21:23;;;;;;;12.13;10.82;;;;;;;15.90;nan;100005.38;5022882;28;20062;-73
2022/05/11 02:23:50;;;;;;;17.02;11.93;;;;;;;16.01;nan;100006.06;5024856;28;20034;-73
2022/05/11 02:26:16;;;;;;;13.40;11.10;;;;;;;16.04;nan;100006.53;5024119;28;20025;-73
2022/05/11 02:28:42;;;;;;;13.10;10.38;;;;;;;16.09;nan;100000.72;5021427;28;20204;-73
2022/05/11 02:31:08;;;;;;;15.35;11.43;;;;;;;16.04;nan;100005.72;5024842;28;20124;-73
2022/05/11 02:33:34;;;;;;;12.75;11.45;;;;;;;15.67;nan;100004.34;5021273;28;20037;-72
2022/05/11 02:36:00;;;;;;;12.60;11.27;;;;;;;15.71;nan;100011.03;5022687;28;20026;-73
2022/05/11 02:38:29;;;;;;;12.88;11.60;;;;;;;15.70;nan;100008.53;5022156;28;20042;-72
2022/05/11 02:40:55;;;;;;;13.55;11.38;;;;;;;15.53;nan;100007.69;5021897;28;20120;-72
2022/05/11 02:43:21;;;;;;;16.83;11.57;;;;;;;15.64;nan;100009.19;5023140;28;20049;-74
2022/05/11 02:45:49;;;;;;;12.45;11.18;;;;;;;15.64;nan;100009.19;5022492;28;20100;-74
2022/05/11 02:48:18;;;;;;;15.25;11.18;;;;;;;15.42;nan;100018.59;5024265;28;20037;-74
2022/05/11 02:50:51;;;;;;;17.15;11.23;;;;;;;15.47;nan;100026.91;5021372;28;20393;-74
2022/05/11 02:53:18;;;;;;;13.43;11.25;;;;;;;15.61;nan;100025.50;5023406;28;20037;-74
2022/05/11 02:55:46;;;;;;;12.75;11.07;;;;;;;15.56;nan;100024.13;5023724;28;20502;-74
2022/05/11 02:58:13;;;;;;;12.88;11.02;;;;;;;15.30;nan;100025.19;5023036;28;20029;-74
2022/05/11 03:00:43;;;;;;;14.07;11.20;;;;;;;15.17;nan;100017.69;5024132;28;20033;-74
2022/05/11 03:03:10;;;;;;;14.80;11.40;;;;;;;14.67;nan;100028.22;5021222;28;20425;-74
2022/05/11 03:05:37;;;;;;;14.63;10.98;;;;;;;14.65;nan;100027.56;5023854;28;20032;-73
2022/05/11 03:08:03;;;;;;;15.07;12.68;;;;;;;14.57;nan;100035.47;5021546;28;20392;-74
2022/05/11 03:10:28;;;;;;;14.10;11.57;;;;;;;14.41;nan;100024.75;5022366;28;20030;-72
2022/05/11 03:12:54;;;;;;;15.85;12.00;;;;;;;14.36;nan;100030.50;5022201;28;20498;-73
2022/05/11 03:15:19;;;;;;;14.82;11.63;;;;;;;14.68;nan;100032.56;5021257;28;20393;-72
2022/05/11 03:17:46;;;;;;;12.75;10.95;;;;;;;14.75;nan;100029.13;5023320;28;20466;-73
2022/05/11 03:20:11;;;;;;;20.63;12.60;;;;;;;14.83;nan;100036.31;5022220;28;20033;-72
2022/05/11 03:22:37;;;;;;;16.08;11.93;;;;;;;14.93;nan;100030.88;5020981;28;20486;-72
2022/05/11 03:25:04;;;;;;;17.42;12.23;;;;;;;14.97;nan;100030.38;5024291;28;20036;-72
2022/05/11 03:27:30;;;;;;;14.75;11.80;;;;;;;15.02;nan;100028.06;5020759;28;20079;-72
2022/05/11 03:29:55;;;;;;;15.13;12.63;;;;;;;15.01;nan;100025.59;5022150;28;20025;-72
2022/05/11 03:35:08;;;;;;;14.27;12.55;;;;;;;14.89;nan;100038.34;5023784;28;20029;-74
2022/05/11 03:37:34;;;;;;;15.77;13.02;;;;;;;14.82;nan;100033.81;5020497;28;20374;-72
2022/05/11 03:40:00;;;;;;;14.60;13.10;;;;;;;14.79;nan;100034.94;5021503;28;20072;-74
2022/05/11 03:42:31;;;;;;;16.20;12.93;;;;;;;14.77;nan;100042.25;5020907;28;20045;-74
2022/05/11 03:45:11;;;;;;;14.20;11.60;;;;;;;14.83;nan;100038.13;5021861;28;20043;-74
2022/05/11 03:47:37;;;;;;;16.70;12.65;;;;;;;14.84;nan;100039.81;5019589;28;20076;-74
2022/05/11 03:50:03;;;;;;;15.57;12.68;;;;;;;14.85;nan;100044.94;5024188;28;20550;-74
2022/05/11 03:52:29;;;;;;;14.52;11.68;;;;;;;14.82;nan;100050.56;5021857;28;20034;-73
2022/05/11 03:54:54;;;;;;;13.10;11.80;;;;;;;14.83;nan;100046.94;5020246;28;20037;-74
2022/05/11 03:57:21;;;;;;;16.88;12.77;;;;;;;14.78;nan;100049.25;5020140;28;20121;-72
2022/05/11 03:59:46;;;;;;;15.35;11.40;;;;;;;14.78;nan;100049.25;5022517;28;20425;-73
2022/05/11 04:02:12;;;;;;;14.40;11.35;;;;;;;14.76;nan;100043.25;5019567;28;20044;-73
2022/05/11 04:04:37;;;;;;;15.18;11.43;;;;;;;14.72;nan;100052.53;5022684;28;20083;-73
2022/05/11 04:07:03;;;;;;;16.92;12.02;;;;;;;14.71;nan;100053.50;5020290;28;20379;-73
2022/05/11 04:09:28;;;;;;;12.85;10.57;;;;;;;14.70;nan;100052.66;5021221;28;20038;-73
2022/05/11 04:11:54;;;;;;;11.45;10.45;;;;;;;14.75;nan;100049.53;5021216;28;20108;-73
2022/05/11 04:14:19;;;;;;;12.35;10.95;;;;;;;14.70;nan;100057.97;5020312;28;20375;-73
2022/05/11 04:16:45;;;;;;;13.38;11.13;;;;;;;14.75;nan;100060.16;5022206;28;20033;-74
2022/05/11 04:19:10;;;;;;;15.50;10.93;;;;;;;14.82;nan;100061.22;5021261;28;20052;-74
2022/05/11 04:21:36;;;;;;;15.50;10.75;;;;;;;14.86;nan;100057.22;5022486;28;20163;-73
2022/05/11 04:24:01;;;;;;;12.23;10.52;;;;;;;14.82;nan;100066.53;5020210;28;20037;-73
2022/05/11 04:26:30;;;;;;;14.48;10.80;;;;;;;14.90;nan;100069.22;5020822;28;20037;-73
2022/05/11 04:28:56;;;;;;;14.35;11.00;;;;;;;14.74;nan;100069.13;5021303;28;20037;-73
2022/05/11 04:31:21;;;;;;;14.40;10.38;;;;;;;14.91;nan;100068.22;5020147;28;20079;-74
2022/05/11 04:33:47;;;;;;;14.93;10.60;;;;;;;14.94;nan;100070.56;5021794;28;20029;-74
2022/05/11 04:36:12;;;;;;;11.88;10.77;;;;;;;14.96;nan;100073.06;5019414;28;20022;-74
2022/05/11 04:38:38;;;;;;;13.93;11.57;;;;;;;14.93;nan;100068.06;5022181;28;20025;-73
2022/05/11 04:41:04;;;;;;;12.90;11.32;;;;;;;14.88;nan;100076.53;5019381;28;20072;-74
2022/05/11 04:43:30;;;;;;;15.70;11.77;;;;;;;14.85;nan;100079.47;5021376;28;20033;-73
2022/05/11 04:45:56;;;;;;;13.85;11.50;;;;;;;14.85;nan;100076.81;5021117;28;20025;-73
2022/05/11 04:48:22;;;;;;;16.90;12.20;;;;;;;14.92;nan;100083.19;5019985;28;20026;-73
2022/05/11 04:50:47;;;;;;;16.00;12.10;;;;;;;14.90;nan;100090.50;5021575;28;20036;-73
2022/05/11 04:53:15;;;;;;;14.45;12.02;;;;;;;14.96;nan;100084.50;5019059;28;20034;-73
2022/05/11 04:55:41;;;;;;;15.70;12.00;;;;;;;14.98;nan;100089.69;5018338;28;20049;-74
2022/05/11 04:58:07;;;;;;;17.90;12.15;;;;;;;14.97;nan;100091.50;5020780;28;20036;-74
2022/05/11 05:00:34;;;;;;;13.45;11.57;;;;;;;14.97;nan;100096.81;4670747;28;10000290;-75
2022/05/11 05:03:05;;;;;;;14.30;12.55;;;;;;;14.87;nan;100103.25;5017819;28;20041;-75
2022/05/11 05:05:31;;;;;;;13.35;12.05;;;;;;;14.87;nan;100101.41;5018472;28;20501;-77
2022/05/11 05:07:56;;;;;;;14.30;11.95;;;;;;;14.98;nan;100103.81;5017112;28;20030;-75
2022/05/11 05:10:22;;;;;;;16.35;11.65;;;;;;;15.09;nan;100108.00;5017824;28;20216;-75
2022/05/11 05:12:47;;;;;;;16.08;11.65;;;;;;;15.20;nan;100109.59;5015858;28;20389;-78
2022/05/11 05:15:15;;;;;;;16.23;12.52;;;;;;;15.24;nan;100113.59;5017437;28;20174;-74
2022/05/11 05:17:41;;;;;;;15.00;12.77;;;;;;;15.35;nan;100124.78;5018035;28;20502;-75
2022/05/11 05:20:08;;;;;;;19.83;13.05;;;;;;;15.44;nan;100125.63;5020504;28;20163;-74
2022/05/11 05:22:35;;;;;;;15.18;12.60;;;;;;;15.45;nan;100127.28;5021196;28;20060;-74
2022/05/11 05:25:00;;;;;;;16.27;13.07;;;;;;;15.53;nan;100127.38;5019195;28;20667;-74
2022/05/11 05:27:26;;;;;;;13.90;12.43;;;;;;;15.57;nan;100126.88;5020004;28;20095;-74
2022/05/11 05:32:51;;;;;;;15.52;13.06;;;;;;;15.62;nan;100134.38;4852852;28;10001217;-75
2022/05/11 05:35:18;;;;;;;17.92;12.65;;;;;;;15.67;nan;100142.69;5024766;28;20827;-74
2022/05/11 05:37:44;;;;;;;17.42;13.35;;;;;;;15.63;nan;100145.84;5025385;28;20028;-74
2022/05/11 05:40:11;;;;;;;17.35;13.02;;;;;;;15.66;nan;100159.69;5020692;28;20100;-75
2022/05/11 05:42:37;;;;;;;14.57;13.07;;;;;;;15.63;nan;100154.66;5021356;28;20313;-76
2022/05/11 05:45:04;;;;;;;15.23;13.73;;;;;;;15.45;nan;100149.41;5023491;28;20563;-78
2022/05/11 05:47:29;;;;;;;17.15;13.68;;;;;;;15.55;nan;100155.47;5021460;28;20038;-75
2022/05/11 05:49:55;;;;;;;15.68;13.65;;;;;;;15.64;nan;100153.69;5022266;28;20036;-76
2022/05/11 05:52:23;;;;;;;17.15;12.38;;;;;;;15.71;nan;100162.69;5023644;28;20033;-76
2022/05/11 05:54:50;;;;;;;17.52;13.13;;;;;;;15.85;nan;100162.06;5022875;28;20454;-77
2022/05/11 05:57:16;;;;;;;16.92;13.20;;;;;;;15.96;nan;100164.41;5025221;28;20069;-76
2022/05/11 05:59:42;;;;;;;18.40;14.02;;;;;;;16.05;nan;100161.78;5021208;28;20562;-76
2022/05/11 06:02:13;;;;;;;18.95;14.60;;;;;;;16.12;nan;100162.78;5021574;28;20434;-76
2022/05/11 06:04:43;;;;;;;18.75;13.88;;;;;;;16.19;nan;100171.81;5021330;28;20037;-75
2022/05/11 06:07:09;;;;;;;18.67;13.60;;;;;;;16.27;nan;100177.13;5021449;28;20090;-75
2022/05/11 06:09:34;;;;;;;17.50;14.18;;;;;;;16.28;nan;100179.63;5024056;28;20025;-75
2022/05/11 06:12:00;;;;;;;18.17;14.30;;;;;;;16.30;nan;100176.81;5022099;28;20361;-75
2022/05/11 06:14:25;;;;;;;18.58;13.65;;;;;;;16.38;nan;100176.81;5022848;28;20064;-75
2022/05/11 06:16:53;;;;;;;15.80;13.80;;;;;;;16.39;nan;100175.81;5023639;28;20064;-75
2022/05/11 06:19:19;;;;;;;18.05;14.38;;;;;;;16.34;nan;100183.47;5020779;28;20619;-76
2022/05/11 06:21:44;;;;;;;19.83;16.23;;;;;;;16.47;nan;100178.50;5024262;28;20025;-75
2022/05/11 06:24:10;;;;;;;15.60;13.98;;;;;;;16.58;nan;100175.50;5021331;28;20034;-75
2022/05/11 06:26:35;;;;;;;19.60;14.48;;;;;;;16.68;nan;100176.19;5024146;28;20497;-76
2022/05/11 06:29:04;;;;;;;18.17;14.30;;;;;;;16.78;nan;100176.88;5023765;28;20065;-75
2022/05/11 06:31:30;;;;;;;19.83;13.82;;;;;;;16.84;nan;100183.38;5024989;28;20474;-75
2022/05/11 06:33:56;;;;;;;15.82;13.75;;;;;;;16.95;nan;100174.19;5023401;28;20041;-76
2022/05/11 06:36:26;;;;;;;15.85;13.20;;;;;;;17.05;nan;100188.16;5023225;28;20053;-75
2022/05/11 06:38:52;;;;;;;17.42;13.93;;;;;;;17.13;nan;100191.66;5022563;28;20038;-75
2022/05/11 06:41:23;;;;;;;17.98;13.23;;;;;;;17.19;nan;100187.47;5023191;28;20088;-75
2022/05/11 06:43:49;;;;;;;;;;;;;;;17.27;nan;100191.94;5021319;28;20386;-75
2022/05/11 06:46:14;;;;;;;19.60;13.40;;;;;;;17.38;nan;100183.56;5024356;28;19917;-75
2022/05/11 06:48:40;;;;;;;15.48;13.20;;;;;;;17.51;nan;100184.72;5021071;28;20037;-75
2022/05/11 06:51:05;;;;;;;15.63;12.30;;;;;;;17.60;nan;100182.88;5024868;28;20040;-75
2022/05/11 06:59:20;;;;;;;15.50;11.75;;;;;;;17.66;nan;100189.38;5021504;28;20120;-76
2022/05/11 07:01:44;;;;;;;12.88;11.30;;;;;;;17.69;nan;100178.34;5021158;28;20049;-76
2022/05/11 07:04:09;;;;;;;15.80;11.20;;;;;;;17.86;nan;100188.75;5024766;28;20033;-77
2022/05/11 07:06:34;;;;;;;12.10;10.85;;;;;;;17.98;nan;100186.53;5023407;28;20121;-77
2022/05/11 07:09:00;;;;;;;17.25;11.32;;;;;;;18.04;nan;100191.19;5021911;28;20139;-77
2022/05/11 07:14:09;;;;;;;11.95;10.32;;;;;;;18.23;nan;100190.75;5021025;28;20041;-76
2022/05/11 07:16:35;;;;;;;12.63;10.20;;;;;;;18.28;nan;100185.69;5022684;28;20498;-76
2022/05/11 07:19:01;;;;;;;12.60;10.68;;;;;;;18.34;nan;100186.81;5021971;28;20021;-76
2022/05/11 07:21:26;;;;;;;15.45;10.57;;;;;;;18.43;nan;100191.13;5022434;28;20042;-76
2022/05/11 07:23:52;;;;;;;12.00;10.70;;;;;;;18.50;nan;100186.69;5023076;28;20116;-77
2022/05/11 07:26:17;;;;;;;11.77;10.65;;;;;;;18.49;nan;100192.25;5023843;28;20117;-77
2022/05/11 07:28:44;;;;;;;15.10;10.07;;;;;;;18.61;nan;100188.19;5026840;28;20434;-78
2022/05/11 07:31:09;;;;;;;11.02;9.88;;;;;;;18.66;nan;100191.16;5020798;28;20068;-76
2022/05/11 07:33:34;;;;;;;15.05;10.32;;;;;;;18.75;nan;100190.06;5024329;28;20045;-76
2022/05/11 07:36:00;;;;;;;10.27;9.38;;;;;;;18.83;nan;100184.66;5021748;28;20474;-76
2022/05/11 07:38:25;;;;;;;14.63;9.52;;;;;;;18.92;nan;100190.72;5018248;28;20482;-75
2022/05/11 07:40:51;;;;;;;12.25;9.02;;;;;;;18.99;nan;100186.34;5023629;28;20120;-75
2022/05/11 07:43:16;;;;;;;9.60;8.73;;;;;;;19.05;nan;100190.97;5020987;28;20037;-74
2022/05/11 07:45:42;;;;;;;11.60;8.10;;;;;;;19.12;nan;100186.53;5020625;28;20038;-76
2022/05/11 07:48:08;;;;;;;12.00;7.28;;;;;;;19.21;nan;100188.94;5020681;28;20034;-75
2022/05/11 07:50:34;;;;;;;13.35;8.20;;;;;;;19.30;nan;100188.88;5023121;28;20036;-76
2022/05/11 07:53:00;;;;;;;9.80;8.30;;;;;;;19.37;nan;100184.44;5021547;28;20049;-76
2022/05/11 07:55:27;;;;;;;10.18;8.88;;;;;;;19.39;nan;100188.59;5020484;28;20033;-76
2022/05/11 08:00:52;;;;;;;9.93;8.88;;;;;;;19.50;nan;100190.84;5021900;28;20168;-76
2022/05/11 08:03:18;;;;;;;10.15;9.07;;;;;;;19.52;nan;100187.97;5021724;28;20856;-75
2022/05/11 08:05:43;;;;;;;9.75;8.80;;;;;;;19.58;nan;100184.56;5022208;28;20845;-75
2022/05/11 08:08:09;;;;;;;9.90;8.93;;;;;;;19.67;nan;100190.66;5019790;28;20036;-75
2022/05/11 08:10:41;;;;;;;11.90;8.50;;;;;;;19.73;nan;100190.75;5020946;28;20029;-76
2022/05/11 08:13:07;;;;;;;10.57;9.10;;;;;;;19.77;nan;100193.88;5020042;28;20044;-75
2022/05/11 08:15:43;;;;;;;16.08;10.07;;;;;;;19.81;nan;100192.47;5020298;28;20450;-75
2022/05/11 08:18:09;;;;;;;14.07;9.60;;;;;;;19.88;nan;100188.03;5021749;28;20034;-75
2022/05/11 08:20:38;;;;;;;10.27;8.63;;;;;;;19.93;nan;100191.81;5020963;28;20034;-71
2022/05/11 08:23:05;;;;;;;10.43;7.00;;;;;;;19.99;nan;100190.22;5020027;28;20049;-69
2022/05/11 08:25:33;;;;;;;9.40;8.10;;;;;;;20.02;nan;100190.72;5018596;28;20037;-69
2022/05/11 08:28:00;;;;;;;24.73;8.48;;;;;;;20.02;nan;100182.66;5020917;28;20033;-69
2022/05/11 08:33:24;;;;;;;9.25;6.85;;;;;;;20.08;nan;100177.56;5021704;28;20037;-70
2022/05/11 08:35:56;;;;;;;10.32;7.60;;;;;;;20.16;nan;100178.28;5020506;28;20029;-72
2022/05/11 08:38:23;;;;;;;9.50;6.97;;;;;;;20.23;nan;100186.38;5020021;28;20034;-69
2022/05/11 08:41:04;;;;;;;12.85;8.50;;;;;;;20.31;nan;100183.59;5019950;28;20533;-71
2022/05/11 08:43:31;;;;;;;12.93;8.75;;;;;;;20.37;nan;100183.69;5020588;28;20382;-70
2022/05/11 08:46:15;;;;;;;13.40;8.98;;;;;;;20.40;nan;100182.47;5024427;28;20029;-71
2022/05/11 08:48:57;;;;;;;9.07;7.93;;;;;;;20.46;nan;100181.72;5018801;28;20076;-68
2022/05/11 08:51:31;;;;;;;11.40;7.97;;;;;;;20.50;nan;100182.97;5021196;28;20032;-69
2022/05/11 08:54:08;;;;;;;11.98;7.57;;;;;;;20.57;nan;100183.88;5021560;28;20087;-69
2022/05/11 08:56:34;;;;;;;6.80;6.15;;;;;;;20.62;nan;100181.44;5019159;28;20585;-70
2022/05/11 08:59:00;;;;;;;8.30;5.32;;;;;;;20.67;nan;100184.41;5077211;22;20519;-76
2022/05/11 09:01:45;;;;;;;7.22;5.43;;;;;;;20.69;nan;100193.06;5075402;28;20028;-77
2022/05/11 09:04:15;;;;;;;11.77;6.13;;;;;;;20.76;nan;100188.59;5091068;28;20032;-78
2022/05/11 09:06:44;;;;;;;7.95;6.15;;;;;;;20.81;nan;100179.97;5069790;28;20406;-75
2022/05/11 09:09:10;;;;;;;7.78;6.15;;;;;;;20.84;nan;100175.06;5072622;28;20028;-79
2022/05/11 09:11:54;;;;;;;6.53;5.57;;;;;;;20.87;nan;100173.00;5073879;28;20041;-76
2022/05/11 09:14:31;;;;;;;10.85;6.00;;;;;;;20.90;nan;100176.13;5073779;28;20500;-76
2022/05/11 09:16:56;;;;;;;8.30;5.70;;;;;;;20.91;nan;100171.59;5072147;28;20032;-76
2022/05/11 09:19:26;;;;;;;9.65;6.63;;;;;;;20.93;nan;100166.84;5073775;28;20047;-76
2022/05/11 09:21:55;;;;;;;11.07;6.07;;;;;;;20.99;nan;100174.13;5070029;28;20028;-74
2022/05/11 09:24:27;;;;;;;6.03;5.43;;;;;;;21.01;nan;100175.59;5069926;28;20043;-81
2022/05/11 09:27:24;;;;;;;5.88;5.15;;;;;;;21.07;nan;100182.03;5071358;28;20058;-79
2022/05/11 09:30:24;;;;;;;10.23;6.10;;;;;;;21.09;nan;100182.66;5070774;28;20085;-78
2022/05/11 09:33:11;;;;;;;9.55;5.75;;;;;;;21.14;nan;100180.22;5067356;28;20074;-79
2022/05/11 09:35:37;;;;;;;6.82;5.35;;;;;;;21.19;nan;100177.81;5070237;28;20064;-80
2022/05/11 09:38:30;;;;;;;5.75;5.25;;;;;;;21.33;nan;100184.91;5059265;28;20036;-79
2022/05/11 09:40:56;;;;;;;5.88;5.28;;;;;;;21.37;nan;100172.78;5068696;28;20517;-79
2022/05/11 09:43:38;;;;;;;6.38;4.72;;;;;;;21.40;nan;100172.38;5069973;28;20029;-78
2022/05/11 09:46:15;;;;;;;7.50;5.72;;;;;;;21.39;nan;100184.13;5064094;28;20041;-81
2022/05/11 09:49:06;;;;;;;9.02;5.32;;;;;;;21.39;nan;100178.75;5065109;28;20435;-80
2022/05/11 09:51:41;;;;;;;4.63;4.05;;;;;;;21.41;nan;100174.03;5069093;28;20124;-78
2022/05/11 09:54:51;;;;;;;5.20;4.22;;;;;;;21.58;nan;100178.03;5070080;28;20055;-78
2022/05/11 09:57:23;;;;;;;8.17;4.37;;;;;;;21.56;nan;100169.34;5065298;28;20055;-79
2022/05/11 09:59:56;;;;;;;5.40;4.50;;;;;;;21.63;nan;100169.38;5070043;28;20032;-79
2022/05/11 10:02:34;;;;;;;6.20;4.85;;;;;;;21.63;nan;100164.84;5069424;28;20027;-79
2022/05/11 10:05:05;;;;;;;4.85;4.18;;;;;;;21.65;nan;100165.50;5070075;28;20029;-79
2022/05/11 10:07:36;;;;;;;6.45;4.60;;;;;;;21.69;nan;100160.53;5061156;28;20037;-80
2022/05/11 10:10:27;;;;;;;5.78;4.47;;;;;;;21.76;nan;100157.88;5064626;28;20025;-80
2022/05/11 10:13:00;;;;;;;6.15;4.30;;;;;;;21.91;nan;100166.63;5070240;28;20401;-80
2022/05/11 10:21:54;;;;;;;5.68;5.15;;;;;;;22.17;nan;100155.97;5073261;28;20128;-80
2022/05/11 10:24:43;;;;;;;6.43;5.10;;;;;;;22.14;nan;100156.41;5070488;28;20033;-80
2022/05/11 10:27:11;;;;;;;8.25;5.15;;;;;;;22.17;nan;100150.59;5069576;28;20033;-79
2022/05/11 10:30:13;;;;;;;5.57;4.55;;;;;;;22.17;nan;100145.22;5061269;28;20039;-79
2022/05/11 10:33:20;;;;;;;6.28;4.90;;;;;;;22.21;nan;100141.09;5068483;28;20032;-79
2022/05/11 10:36:04;;;;;;;5.78;5.20;;;;;;;22.22;nan;100141.91;5046114;28;20102;-79
2022/05/11 10:38:44;;;;;;;5.63;5.13;;;;;;;22.25;nan;100145.06;5044894;28;20033;-79
2022/05/11 10:41:21;;;;;;;5.60;4.57;;;;;;;22.20;nan;100136.78;5042575;28;20045;-79
2022/05/11 10:44:04;;;;;;;5.78;4.82;;;;;;;22.24;nan;100129.94;5043926;28;20025;-79
2022/05/11 10:46:42;;;;;;;6.68;4.95;;;;;;;22.44;nan;100130.78;5046070;28;20100;-80
2022/05/11 10:49:29;;;;;;;7.15;4.47;;;;;;;22.49;nan;100121.28;5029762;28;20041;-79
2022/05/11 10:52:15;;;;;;;6.47;5.45;;;;;;;22.48;nan;100127.69;5048633;28;20075;-79
2022/05/11 10:55:02;;;;;;;6.55;4.40;;;;;;;22.50;nan;100117.56;5046207;28;20057;-79
2022/05/11 10:57:59;;;;;;;7.10;5.03;;;;;;;22.60;nan;100112.59;5042529;28;20115;-80
2022/05/11 11:00:28;;;;;;;7.90;4.93;;;;;;;22.61;nan;100119.63;5044186;28;20060;-79
2022/05/11 11:03:08;;;;;;;5.65;5.07;;;;;;;22.50;nan;100106.81;5046249;28;20032;-79
2022/05/11 11:05:40;;;;;;;;;;;;;;;22.54;nan;100108.06;5045965;28;20034;-80
2022/05/11 11:08:24;;;;;;;6.68;4.70;;;;;;;22.51;nan;100101.22;5072108;28;19919;-79
2022/05/11 11:11:06;;;;;;;5.25;4.50;;;;;;;22.58;nan;100093.13;5070264;28;20488;-79
2022/05/11 11:13:48;;;;;;;9.48;5.78;;;;;;;22.77;nan;100086.97;5072119;28;20041;-79
2022/05/11 11:16:15;;;;;;;8.27;4.70;;;;;;;22.74;nan;100087.34;5068866;28;20029;-79
2022/05/11 11:18:45;;;;;;;6.25;5.07;;;;;;;22.81;nan;100083.63;5070945;28;20050;-79
2022/05/11 11:21:12;;;;;;;5.95;5.15;;;;;;;22.93;nan;100083.81;5068714;28;20033;-79
2022/05/11 11:23:42;;;;;;;7.65;4.95;;;;;;;22.99;nan;100074.06;5060230;28;20036;-79
2022/05/11 11:26:32;;;;;;;6.20;5.13;;;;;;;23.17;nan;100075.06;5068217;28;20052;-80
2022/05/11 11:29:00;;;;;;;5.18;4.72;;;;;;;23.31;nan;100072.34;5070762;28;20040;-79
2022/05/11 11:31:28;;;;;;;5.22;4.72;;;;;;;23.26;nan;100076.50;5071553;28;20032;-79
2022/05/11 11:33:56;;;;;;;5.50;5.00;;;;;;;23.27;nan;100067.38;5062440;28;20064;-79
2022/05/11 11:36:26;;;;;;;6.55;4.93;;;;;;;23.25;nan;100058.69;5061151;28;20021;-79
2022/05/11 11:38:53;;;;;;;7.78;5.10;;;;;;;23.31;nan;100061.56;5071779;28;20043;-79
2022/05/11 11:41:19;;;;;;;6.97;5.95;;;;;;;23.34;nan;100061.97;5069892;28;20481;-78
2022/05/11 11:43:57;;;;;;;6.95;5.60;;;;;;;23.42;nan;100059.03;5058828;28;20100;-79
2022/05/11 11:46:41;;;;;;;5.05;4.60;;;;;;;23.50;nan;100058.00;5066927;28;20028;-78
2022/05/11 11:49:18;;;;;;;5.57;4.82;;;;;;;23.55;nan;100059.00;5070600;28;20477;-78
2022/05/11 11:51:50;;;;;;;7.28;4.40;;;;;;;23.71;nan;100057.69;5067954;28;20075;-78
2022/05/11 11:54:37;;;;;;;5.13;4.63;;;;;;;23.75;nan;100048.13;5071772;28;20078;-79
2022/05/11 11:57:06;;;;;;;7.38;4.80;;;;;;;23.81;nan;100047.25;5060757;28;20055;-79
2022/05/11 11:59:34;;;;;;;6.72;5.10;;;;;;;24.05;nan;100048.34;5061936;28;20049;-79
2022/05/11 12:02:28;;;;;;;5.07;4.50;;;;;;;24.34;nan;100036.94;5071371;28;20033;-80
2022/05/11 12:04:59;;;;;;;5.13;4.35;;;;;;;24.51;nan;100041.78;5069809;28;20488;-79
2022/05/11 12:16:03;;;;;;;8.55;4.60;;;;;;;26.74;nan;100016.34;5069057;28;20044;-79
2022/05/11 12:18:32;;;;;;;4.95;4.53;;;;;;;27.44;nan;100024.34;5071224;28;20036;-79
2022/05/11 12:20:59;;;;;;;4.82;3.92;;;;;;;27.91;nan;100017.66;5070042;28;20048;-80